sensor_id;sensor_type;location;lat;lon;timestamp;P1;durP1;ratioP1;P2;durP2;ratioP2
19087;SDS011;9676;50.916;13.352;2024-01-15T00:02:14;15.30;;;13.47;;
19087;SDS011;9676;50.916;13.352;2024-01-15T00:05:04;14.00;;;12.50;;
19087;SDS011;9676;50.916;13.352;2024-01-15T00:07:53;14.03;;;12.63;;
19087;SDS011;9676;50.916;13.352;2024-01-15T00:10:43;14.00;;;12.10;;
19087;SDS011;9676;50.916;13.352;2024-01-15T00:13:32;14.37;;;12.80;;
19087;SDS011;9676;50.916;13.352;2024-01-15T00:16:23;15.20;;;13.60;;
19087;SDS011;9676;50.916;13.352;2024-01-15T00:19:12;16.30;;;14.00;;
19087;SDS011;9676;50.916;13.352;2024-01-15T00:22:02;14.90;;;12.80;;
19087;SDS011;9676;50.916;13.352;2024-01-15T00:24:51;16.20;;;12.60;;
19087;SDS011;9676;50.916;13.352;2024-01-15T00:27:41;14.73;;;13.10;;
19087;SDS011;9676;50.916;13.352;2024-01-15T00:30:30;15.50;;;12.77;;
19087;SDS011;9676;50.916;13.352;2024-01-15T00:33:21;14.03;;;12.43;;
19087;SDS011;9676;50.916;13.352;2024-01-15T00:36:11;13.03;;;11.73;;
19087;SDS011;9676;50.916;13.352;2024-01-15T00:39:02;13.10;;;11.80;;
19087;SDS011;9676;50.916;13.352;2024-01-15T00:41:52;15.60;;;12.93;;
19087;SDS011;9676;50.916;13.352;2024-01-15T00:44:42;14.30;;;12.80;;
19087;SDS011;9676;50.916;13.352;2024-01-15T00:47:31;13.80;;;12.40;;
19087;SDS011;9676;50.916;13.352;2024-01-15T00:50:22;15.60;;;13.37;;
19087;SDS011;9676;50.916;13.352;2024-01-15T00:53:11;15.50;;;13.80;;
19087;SDS011;9676;50.916;13.352;2024-01-15T00:56:01;14.10;;;12.60;;
19087;SDS011;9676;50.916;13.352;2024-01-15T00:58:50;15.83;;;12.40;;
19087;SDS011;9676;50.916;13.352;2024-01-15T01:01:40;15.50;;;12.67;;
19087;SDS011;9676;50.916;13.352;2024-01-15T01:04:30;14.47;;;12.27;;
19087;SDS011;9676;50.916;13.352;2024-01-15T01:07:21;14.80;;;12.80;;
19087;SDS011;9676;50.916;13.352;2024-01-15T01:10:10;13.87;;;12.47;;
19087;SDS011;9676;50.916;13.352;2024-01-15T01:13:00;15.47;;;13.87;;
19087;SDS011;9676;50.916;13.352;2024-01-15T01:15:49;16.10;;;12.70;;
19087;SDS011;9676;50.916;13.352;2024-01-15T01:18:39;14.10;;;12.63;;
19087;SDS011;9676;50.916;13.352;2024-01-15T01:21:28;14.27;;;12.60;;
19087;SDS011;9676;50.916;13.352;2024-01-15T01:24:19;14.27;;;12.77;;
19087;SDS011;9676;50.916;13.352;2024-01-15T01:27:08;16.87;;;12.90;;
19087;SDS011;9676;50.916;13.352;2024-01-15T01:29:58;15.50;;;13.00;;
19087;SDS011;9676;50.916;13.352;2024-01-15T01:32:47;15.60;;;13.67;;
19087;SDS011;9676;50.916;13.352;2024-01-15T01:35:37;15.13;;;12.83;;
19087;SDS011;9676;50.916;13.352;2024-01-15T01:38:26;13.80;;;12.20;;
19087;SDS011;9676;50.916;13.352;2024-01-15T01:41:17;14.30;;;12.53;;
19087;SDS011;9676;50.916;13.352;2024-01-15T01:44:06;14.50;;;12.50;;
19087;SDS011;9676;50.916;13.352;2024-01-15T01:46:56;15.87;;;13.17;;
19087;SDS011;9676;50.916;13.352;2024-01-15T01:49:46;14.27;;;12.77;;
19087;SDS011;9676;50.916;13.352;2024-01-15T01:52:35;15.60;;;13.20;;
19087;SDS011;9676;50.916;13.352;2024-01-15T01:55:26;14.70;;;13.17;;
19087;SDS011;9676;50.916;13.352;2024-01-15T01:58:19;15.00;;;12.87;;
19087;SDS011;9676;50.916;13.352;2024-01-15T02:01:09;15.10;;;13.50;;
19087;SDS011;9676;50.916;13.352;2024-01-15T02:03:59;14.87;;;12.73;;
19087;SDS011;9676;50.916;13.352;2024-01-15T02:06:49;14.63;;;12.80;;
19087;SDS011;9676;50.916;13.352;2024-01-15T02:09:39;16.60;;;13.83;;
19087;SDS011;9676;50.916;13.352;2024-01-15T02:12:30;17.23;;;14.40;;
19087;SDS011;9676;50.916;13.352;2024-01-15T02:15:20;14.60;;;12.80;;
19087;SDS011;9676;50.916;13.352;2024-01-15T02:18:10;16.37;;;13.63;;
19087;SDS011;9676;50.916;13.352;2024-01-15T02:21:00;17.80;;;14.20;;
19087;SDS011;9676;50.916;13.352;2024-01-15T02:23:50;15.50;;;13.57;;
19087;SDS011;9676;50.916;13.352;2024-01-15T02:26:40;14.20;;;12.57;;
19087;SDS011;9676;50.916;13.352;2024-01-15T02:29:29;15.83;;;13.33;;
19087;SDS011;9676;50.916;13.352;2024-01-15T02:32:19;14.77;;;13.07;;
19087;SDS011;9676;50.916;13.352;2024-01-15T02:35:08;19.80;;;14.03;;
19087;SDS011;9676;50.916;13.352;2024-01-15T02:37:57;18.13;;;13.17;;
19087;SDS011;9676;50.916;13.352;2024-01-15T02:40:49;17.33;;;13.63;;
19087;SDS011;9676;50.916;13.352;2024-01-15T02:43:39;14.60;;;13.00;;
19087;SDS011;9676;50.916;13.352;2024-01-15T02:46:28;14.97;;;13.10;;
19087;SDS011;9676;50.916;13.352;2024-01-15T02:49:18;15.73;;;13.40;;
19087;SDS011;9676;50.916;13.352;2024-01-15T02:52:07;15.77;;;13.50;;
19087;SDS011;9676;50.916;13.352;2024-01-15T02:54:57;16.13;;;13.90;;
19087;SDS011;9676;50.916;13.352;2024-01-15T02:57:47;16.70;;;14.20;;
19087;SDS011;9676;50.916;13.352;2024-01-15T03:00:37;17.53;;;14.33;;
19087;SDS011;9676;50.916;13.352;2024-01-15T03:03:26;15.07;;;13.43;;
19087;SDS011;9676;50.916;13.352;2024-01-15T03:06:16;19.10;;;14.00;;
19087;SDS011;9676;50.916;13.352;2024-01-15T03:09:05;17.90;;;14.73;;
19087;SDS011;9676;50.916;13.352;2024-01-15T03:11:55;18.50;;;15.10;;
19087;SDS011;9676;50.916;13.352;2024-01-15T03:14:45;16.37;;;14.00;;
19087;SDS011;9676;50.916;13.352;2024-01-15T03:17:35;20.03;;;15.10;;
19087;SDS011;9676;50.916;13.352;2024-01-15T03:20:24;18.70;;;14.67;;
19087;SDS011;9676;50.916;13.352;2024-01-15T03:23:14;16.83;;;14.27;;
19087;SDS011;9676;50.916;13.352;2024-01-15T03:26:03;18.87;;;14.87;;
19087;SDS011;9676;50.916;13.352;2024-01-15T03:28:52;20.03;;;15.10;;
19087;SDS011;9676;50.916;13.352;2024-01-15T03:31:43;19.00;;;15.13;;
19087;SDS011;9676;50.916;13.352;2024-01-15T03:34:33;20.10;;;15.70;;
19087;SDS011;9676;50.916;13.352;2024-01-15T03:37:22;18.23;;;15.10;;
19087;SDS011;9676;50.916;13.352;2024-01-15T03:40:12;20.50;;;14.90;;
19087;SDS011;9676;50.916;13.352;2024-01-15T03:43:05;19.03;;;14.73;;
19087;SDS011;9676;50.916;13.352;2024-01-15T03:45:54;17.80;;;14.40;;
19087;SDS011;9676;50.916;13.352;2024-01-15T03:48:45;20.37;;;15.63;;
19087;SDS011;9676;50.916;13.352;2024-01-15T03:51:35;19.63;;;14.90;;
19087;SDS011;9676;50.916;13.352;2024-01-15T03:54:25;18.33;;;14.77;;
19087;SDS011;9676;50.916;13.352;2024-01-15T03:57:14;17.93;;;14.10;;
19087;SDS011;9676;50.916;13.352;2024-01-15T04:00:04;16.57;;;14.17;;
19087;SDS011;9676;50.916;13.352;2024-01-15T04:02:56;18.20;;;14.63;;
19087;SDS011;9676;50.916;13.352;2024-01-15T04:05:47;18.87;;;15.10;;
19087;SDS011;9676;50.916;13.352;2024-01-15T04:08:36;16.30;;;13.63;;
19087;SDS011;9676;50.916;13.352;2024-01-15T04:11:25;18.03;;;14.00;;
19087;SDS011;9676;50.916;13.352;2024-01-15T04:14:15;18.00;;;14.50;;
19087;SDS011;9676;50.916;13.352;2024-01-15T04:17:04;16.50;;;14.23;;
19087;SDS011;9676;50.916;13.352;2024-01-15T04:19:53;18.97;;;14.40;;
19087;SDS011;9676;50.916;13.352;2024-01-15T04:22:44;21.20;;;14.63;;
19087;SDS011;9676;50.916;13.352;2024-01-15T04:25:34;19.20;;;14.97;;
19087;SDS011;9676;50.916;13.352;2024-01-15T04:28:23;17.67;;;14.23;;
19087;SDS011;9676;50.916;13.352;2024-01-15T04:31:20;21.93;;;16.00;;
19087;SDS011;9676;50.916;13.352;2024-01-15T04:34:11;18.33;;;15.23;;
19087;SDS011;9676;50.916;13.352;2024-01-15T04:37:01;17.90;;;14.43;;
19087;SDS011;9676;50.916;13.352;2024-01-15T04:39:52;16.43;;;14.00;;
19087;SDS011;9676;50.916;13.352;2024-01-15T04:42:42;17.60;;;14.43;;
19087;SDS011;9676;50.916;13.352;2024-01-15T04:45:33;19.60;;;15.80;;
19087;SDS011;9676;50.916;13.352;2024-01-15T04:48:22;18.23;;;14.23;;
19087;SDS011;9676;50.916;13.352;2024-01-15T04:51:12;20.83;;;15.77;;
19087;SDS011;9676;50.916;13.352;2024-01-15T04:54:01;21.83;;;14.47;;
19087;SDS011;9676;50.916;13.352;2024-01-15T04:56:52;16.70;;;14.30;;
19087;SDS011;9676;50.916;13.352;2024-01-15T04:59:41;19.03;;;15.63;;
19087;SDS011;9676;50.916;13.352;2024-01-15T05:02:31;16.07;;;13.90;;
19087;SDS011;9676;50.916;13.352;2024-01-15T05:05:20;19.03;;;15.50;;
19087;SDS011;9676;50.916;13.352;2024-01-15T05:08:09;20.40;;;15.33;;
19087;SDS011;9676;50.916;13.352;2024-01-15T05:10:59;23.40;;;15.07;;
19087;SDS011;9676;50.916;13.352;2024-01-15T05:13:50;21.63;;;14.87;;
19087;SDS011;9676;50.916;13.352;2024-01-15T05:16:39;19.90;;;14.70;;
19087;SDS011;9676;50.916;13.352;2024-01-15T05:19:35;19.63;;;15.10;;
19087;SDS011;9676;50.916;13.352;2024-01-15T05:22:24;18.53;;;14.70;;
19087;SDS011;9676;50.916;13.352;2024-01-15T05:25:14;16.40;;;13.67;;
19087;SDS011;9676;50.916;13.352;2024-01-15T05:28:04;19.57;;;15.03;;
19087;SDS011;9676;50.916;13.352;2024-01-15T05:30:55;16.57;;;13.60;;
19087;SDS011;9676;50.916;13.352;2024-01-15T05:33:45;22.50;;;16.30;;
19087;SDS011;9676;50.916;13.352;2024-01-15T05:36:34;19.03;;;15.17;;
19087;SDS011;9676;50.916;13.352;2024-01-15T05:39:24;19.37;;;14.20;;
19087;SDS011;9676;50.916;13.352;2024-01-15T05:42:13;18.03;;;14.80;;
19087;SDS011;9676;50.916;13.352;2024-01-15T05:45:03;20.00;;;14.67;;
19087;SDS011;9676;50.916;13.352;2024-01-15T05:47:55;19.17;;;15.13;;
19087;SDS011;9676;50.916;13.352;2024-01-15T05:50:46;19.50;;;15.27;;
19087;SDS011;9676;50.916;13.352;2024-01-15T05:53:35;18.47;;;14.90;;
19087;SDS011;9676;50.916;13.352;2024-01-15T05:56:27;17.60;;;14.80;;
19087;SDS011;9676;50.916;13.352;2024-01-15T05:59:17;18.70;;;14.10;;
19087;SDS011;9676;50.916;13.352;2024-01-15T06:02:06;18.97;;;14.47;;
19087;SDS011;9676;50.916;13.352;2024-01-15T06:04:57;20.00;;;14.10;;
19087;SDS011;9676;50.916;13.352;2024-01-15T06:07:47;18.50;;;14.50;;
19087;SDS011;9676;50.916;13.352;2024-01-15T06:10:36;20.90;;;15.10;;
19087;SDS011;9676;50.916;13.352;2024-01-15T06:13:25;18.70;;;14.43;;
19087;SDS011;9676;50.916;13.352;2024-01-15T06:16:15;15.80;;;13.23;;
19087;SDS011;9676;50.916;13.352;2024-01-15T06:19:06;15.90;;;12.97;;
19087;SDS011;9676;50.916;13.352;2024-01-15T06:21:57;15.57;;;13.80;;
19087;SDS011;9676;50.916;13.352;2024-01-15T06:24:47;16.43;;;13.60;;
19087;SDS011;9676;50.916;13.352;2024-01-15T06:27:37;16.00;;;14.07;;
19087;SDS011;9676;50.916;13.352;2024-01-15T06:30:26;16.30;;;13.57;;
19087;SDS011;9676;50.916;13.352;2024-01-15T06:33:17;16.13;;;13.43;;
19087;SDS011;9676;50.916;13.352;2024-01-15T06:36:07;16.70;;;13.67;;
19087;SDS011;9676;50.916;13.352;2024-01-15T06:38:59;18.93;;;13.93;;
19087;SDS011;9676;50.916;13.352;2024-01-15T06:41:48;14.67;;;13.10;;
19087;SDS011;9676;50.916;13.352;2024-01-15T06:44:38;15.27;;;12.83;;
19087;SDS011;9676;50.916;13.352;2024-01-15T06:47:27;19.10;;;15.60;;
19087;SDS011;9676;50.916;13.352;2024-01-15T06:50:17;18.17;;;15.03;;
19087;SDS011;9676;50.916;13.352;2024-01-15T06:53:06;15.43;;;13.83;;
19087;SDS011;9676;50.916;13.352;2024-01-15T06:55:57;15.90;;;13.37;;
19087;SDS011;9676;50.916;13.352;2024-01-15T06:58:46;16.80;;;13.77;;
19087;SDS011;9676;50.916;13.352;2024-01-15T07:01:35;18.90;;;14.37;;
19087;SDS011;9676;50.916;13.352;2024-01-15T07:04:25;18.03;;;14.00;;
19087;SDS011;9676;50.916;13.352;2024-01-15T07:07:14;15.33;;;13.33;;
19087;SDS011;9676;50.916;13.352;2024-01-15T07:10:05;17.97;;;14.87;;
19087;SDS011;9676;50.916;13.352;2024-01-15T07:12:57;16.17;;;13.30;;
19087;SDS011;9676;50.916;13.352;2024-01-15T07:15:46;15.03;;;12.30;;
19087;SDS011;9676;50.916;13.352;2024-01-15T07:18:36;17.73;;;14.07;;
19087;SDS011;9676;50.916;13.352;2024-01-15T07:21:26;17.57;;;13.50;;
19087;SDS011;9676;50.916;13.352;2024-01-15T07:24:15;15.20;;;13.47;;
19087;SDS011;9676;50.916;13.352;2024-01-15T07:27:04;19.77;;;13.47;;
19087;SDS011;9676;50.916;13.352;2024-01-15T07:29:55;15.27;;;13.43;;
19087;SDS011;9676;50.916;13.352;2024-01-15T07:32:48;16.50;;;14.03;;
19087;SDS011;9676;50.916;13.352;2024-01-15T07:35:40;16.73;;;13.53;;
19087;SDS011;9676;50.916;13.352;2024-01-15T07:38:29;16.03;;;13.17;;
19087;SDS011;9676;50.916;13.352;2024-01-15T07:41:19;17.27;;;13.70;;
19087;SDS011;9676;50.916;13.352;2024-01-15T07:44:08;16.83;;;14.13;;
19087;SDS011;9676;50.916;13.352;2024-01-15T07:46:59;17.53;;;13.90;;
19087;SDS011;9676;50.916;13.352;2024-01-15T07:49:48;15.47;;;13.10;;
19087;SDS011;9676;50.916;13.352;2024-01-15T07:52:38;16.43;;;13.43;;
19087;SDS011;9676;50.916;13.352;2024-01-15T07:55:29;18.27;;;13.80;;
19087;SDS011;9676;50.916;13.352;2024-01-15T07:58:19;15.90;;;13.50;;
19087;SDS011;9676;50.916;13.352;2024-01-15T08:01:08;15.80;;;13.53;;
19087;SDS011;9676;50.916;13.352;2024-01-15T08:04:00;17.50;;;13.73;;
19087;SDS011;9676;50.916;13.352;2024-01-15T08:06:49;15.77;;;12.87;;
19087;SDS011;9676;50.916;13.352;2024-01-15T08:09:39;14.67;;;13.17;;
19087;SDS011;9676;50.916;13.352;2024-01-15T08:12:29;14.77;;;13.23;;
19087;SDS011;9676;50.916;13.352;2024-01-15T08:15:18;14.27;;;12.77;;
19087;SDS011;9676;50.916;13.352;2024-01-15T08:18:08;15.57;;;13.47;;
19087;SDS011;9676;50.916;13.352;2024-01-15T08:20:59;15.47;;;13.03;;
19087;SDS011;9676;50.916;13.352;2024-01-15T08:23:48;15.70;;;13.13;;
19087;SDS011;9676;50.916;13.352;2024-01-15T08:26:38;20.50;;;14.10;;
19087;SDS011;9676;50.916;13.352;2024-01-15T08:29:27;18.47;;;13.13;;
19087;SDS011;9676;50.916;13.352;2024-01-15T08:32:20;17.03;;;13.73;;
19087;SDS011;9676;50.916;13.352;2024-01-15T08:35:09;15.43;;;13.00;;
19087;SDS011;9676;50.916;13.352;2024-01-15T08:38:01;14.50;;;13.00;;
19087;SDS011;9676;50.916;13.352;2024-01-15T08:40:50;16.27;;;12.90;;
19087;SDS011;9676;50.916;13.352;2024-01-15T08:43:40;14.53;;;13.03;;
19087;SDS011;9676;50.916;13.352;2024-01-15T08:46:30;14.10;;;12.60;;
19087;SDS011;9676;50.916;13.352;2024-01-15T08:49:19;14.50;;;12.63;;
19087;SDS011;9676;50.916;13.352;2024-01-15T08:52:09;14.80;;;12.37;;
19087;SDS011;9676;50.916;13.352;2024-01-15T08:55:00;13.97;;;12.40;;
19087;SDS011;9676;50.916;13.352;2024-01-15T08:57:49;15.17;;;12.67;;
19087;SDS011;9676;50.916;13.352;2024-01-15T09:00:39;13.60;;;12.20;;
19087;SDS011;9676;50.916;13.352;2024-01-15T09:03:29;13.97;;;12.57;;
19087;SDS011;9676;50.916;13.352;2024-01-15T09:06:19;14.93;;;12.60;;
19087;SDS011;9676;50.916;13.352;2024-01-15T09:09:09;16.00;;;13.03;;
19087;SDS011;9676;50.916;13.352;2024-01-15T09:12:00;14.00;;;12.53;;
19087;SDS011;9676;50.916;13.352;2024-01-15T09:14:49;14.00;;;12.07;;
19087;SDS011;9676;50.916;13.352;2024-01-15T09:17:39;18.23;;;13.27;;
19087;SDS011;9676;50.916;13.352;2024-01-15T09:20:29;15.73;;;13.00;;
19087;SDS011;9676;50.916;13.352;2024-01-15T09:23:18;14.30;;;12.70;;
19087;SDS011;9676;50.916;13.352;2024-01-15T09:26:08;14.07;;;12.67;;
19087;SDS011;9676;50.916;13.352;2024-01-15T09:28:59;15.20;;;13.03;;
19087;SDS011;9676;50.916;13.352;2024-01-15T09:31:48;15.17;;;13.00;;
19087;SDS011;9676;50.916;13.352;2024-01-15T09:34:38;13.80;;;12.37;;
19087;SDS011;9676;50.916;13.352;2024-01-15T09:37:29;16.23;;;12.40;;
19087;SDS011;9676;50.916;13.352;2024-01-15T09:40:33;14.03;;;12.63;;
19087;SDS011;9676;50.916;13.352;2024-01-15T09:43:27;13.63;;;12.23;;
19087;SDS011;9676;50.916;13.352;2024-01-15T09:46:17;13.53;;;12.23;;
19087;SDS011;9676;50.916;13.352;2024-01-15T09:49:07;14.00;;;12.50;;
19087;SDS011;9676;50.916;13.352;2024-01-15T09:51:57;13.50;;;12.10;;
19087;SDS011;9676;50.916;13.352;2024-01-15T09:54:58;16.70;;;13.03;;
19087;SDS011;9676;50.916;13.352;2024-01-15T09:57:52;14.70;;;13.07;;
19087;SDS011;9676;50.916;13.352;2024-01-15T10:00:42;14.97;;;12.60;;
19087;SDS011;9676;50.916;13.352;2024-01-15T10:03:35;14.53;;;12.60;;
19087;SDS011;9676;50.916;13.352;2024-01-15T10:06:26;15.37;;;12.33;;
19087;SDS011;9676;50.916;13.352;2024-01-15T10:09:16;14.40;;;12.90;;
19087;SDS011;9676;50.916;13.352;2024-01-15T10:12:06;17.17;;;13.40;;
19087;SDS011;9676;50.916;13.352;2024-01-15T10:14:57;14.07;;;12.13;;
19087;SDS011;9676;50.916;13.352;2024-01-15T10:17:47;14.93;;;12.27;;
19087;SDS011;9676;50.916;13.352;2024-01-15T10:20:38;14.43;;;12.50;;
19087;SDS011;9676;50.916;13.352;2024-01-15T10:23:30;15.10;;;12.80;;
19087;SDS011;9676;50.916;13.352;2024-01-15T10:26:24;15.07;;;13.20;;
19087;SDS011;9676;50.916;13.352;2024-01-15T10:29:14;13.73;;;12.20;;
19087;SDS011;9676;50.916;13.352;2024-01-15T10:32:06;14.37;;;12.80;;
19087;SDS011;9676;50.916;13.352;2024-01-15T10:34:56;14.23;;;12.73;;
19087;SDS011;9676;50.916;13.352;2024-01-15T10:37:48;13.83;;;12.40;;
19087;SDS011;9676;50.916;13.352;2024-01-15T10:40:38;14.93;;;13.10;;
19087;SDS011;9676;50.916;13.352;2024-01-15T10:43:27;13.80;;;12.40;;
19087;SDS011;9676;50.916;13.352;2024-01-15T10:46:16;18.17;;;13.73;;
19087;SDS011;9676;50.916;13.352;2024-01-15T10:49:06;15.13;;;12.70;;
19087;SDS011;9676;50.916;13.352;2024-01-15T10:51:56;14.50;;;12.60;;
19087;SDS011;9676;50.916;13.352;2024-01-15T10:54:47;15.70;;;13.00;;
19087;SDS011;9676;50.916;13.352;2024-01-15T10:57:38;15.23;;;13.30;;
19087;SDS011;9676;50.916;13.352;2024-01-15T11:00:27;15.03;;;12.23;;
19087;SDS011;9676;50.916;13.352;2024-01-15T11:03:17;17.50;;;12.70;;
19087;SDS011;9676;50.916;13.352;2024-01-15T11:06:16;14.47;;;12.80;;
19087;SDS011;9676;50.916;13.352;2024-01-15T11:09:07;14.63;;;12.53;;
19087;SDS011;9676;50.916;13.352;2024-01-15T11:12:07;14.30;;;12.80;;
19087;SDS011;9676;50.916;13.352;2024-01-15T11:15:01;13.07;;;11.77;;
19087;SDS011;9676;50.916;13.352;2024-01-15T11:17:58;13.40;;;12.00;;
19087;SDS011;9676;50.916;13.352;2024-01-15T11:27:40;14.13;;;12.60;;
19087;SDS011;9676;50.916;13.352;2024-01-15T11:30:31;13.17;;;11.90;;
19087;SDS011;9676;50.916;13.352;2024-01-15T11:33:32;12.83;;;11.53;;
19087;SDS011;9676;50.916;13.352;2024-01-15T11:39:50;13.63;;;12.23;;
19087;SDS011;9676;50.916;13.352;2024-01-15T11:42:44;13.13;;;11.83;;
19087;SDS011;9676;50.916;13.352;2024-01-15T11:45:35;13.43;;;11.70;;
19087;SDS011;9676;50.916;13.352;2024-01-15T11:48:25;14.47;;;12.53;;
19087;SDS011;9676;50.916;13.352;2024-01-15T11:51:32;12.83;;;11.53;;
19087;SDS011;9676;50.916;13.352;2024-01-15T11:54:22;13.47;;;12.17;;
19087;SDS011;9676;50.916;13.352;2024-01-15T11:57:17;14.67;;;12.83;;
19087;SDS011;9676;50.916;13.352;2024-01-15T12:00:15;13.10;;;11.80;;
19087;SDS011;9676;50.916;13.352;2024-01-15T12:03:06;13.97;;;12.10;;
19087;SDS011;9676;50.916;13.352;2024-01-15T12:05:55;13.17;;;11.87;;
19087;SDS011;9676;50.916;13.352;2024-01-15T12:08:47;13.20;;;11.80;;
19087;SDS011;9676;50.916;13.352;2024-01-15T12:11:36;13.43;;;12.03;;
19087;SDS011;9676;50.916;13.352;2024-01-15T12:14:32;19.47;;;13.47;;
19087;SDS011;9676;50.916;13.352;2024-01-15T12:17:23;14.53;;;13.03;;
19087;SDS011;9676;50.916;13.352;2024-01-15T12:20:13;13.50;;;12.10;;
19087;SDS011;9676;50.916;13.352;2024-01-15T12:23:04;14.37;;;11.80;;
19087;SDS011;9676;50.916;13.352;2024-01-15T12:25:55;13.80;;;11.70;;
19087;SDS011;9676;50.916;13.352;2024-01-15T12:28:45;16.93;;;11.80;;
19087;SDS011;9676;50.916;13.352;2024-01-15T12:31:34;12.77;;;11.47;;
19087;SDS011;9676;50.916;13.352;2024-01-15T12:34:28;13.27;;;11.93;;
19087;SDS011;9676;50.916;13.352;2024-01-15T12:37:18;12.90;;;11.50;;
19087;SDS011;9676;50.916;13.352;2024-01-15T12:40:08;15.03;;;12.77;;
19087;SDS011;9676;50.916;13.352;2024-01-15T12:42:59;12.73;;;11.43;;
19087;SDS011;9676;50.916;13.352;2024-01-15T12:45:49;12.70;;;11.40;;
19087;SDS011;9676;50.916;13.352;2024-01-15T12:48:39;12.83;;;11.43;;
19087;SDS011;9676;50.916;13.352;2024-01-15T12:51:32;12.20;;;11.00;;
19087;SDS011;9676;50.916;13.352;2024-01-15T12:54:23;12.40;;;11.10;;
19087;SDS011;9676;50.916;13.352;2024-01-15T12:57:13;12.57;;;11.37;;
19087;SDS011;9676;50.916;13.352;2024-01-15T13:00:03;15.50;;;12.20;;
19087;SDS011;9676;50.916;13.352;2024-01-15T13:02:58;13.20;;;11.30;;
19087;SDS011;9676;50.916;13.352;2024-01-15T13:05:48;12.13;;;10.83;;
19087;SDS011;9676;50.916;13.352;2024-01-15T13:08:40;12.50;;;11.27;;
19087;SDS011;9676;50.916;13.352;2024-01-15T13:11:29;13.00;;;11.70;;
19087;SDS011;9676;50.916;13.352;2024-01-15T13:14:19;11.97;;;10.87;;
19087;SDS011;9676;50.916;13.352;2024-01-15T13:17:08;13.50;;;12.13;;
19087;SDS011;9676;50.916;13.352;2024-01-15T13:19:57;12.40;;;11.20;;
19087;SDS011;9676;50.916;13.352;2024-01-15T13:22:48;14.00;;;11.77;;
19087;SDS011;9676;50.916;13.352;2024-01-15T13:25:38;12.80;;;11.50;;
19087;SDS011;9676;50.916;13.352;2024-01-15T13:28:28;12.93;;;11.67;;
19087;SDS011;9676;50.916;13.352;2024-01-15T13:31:17;12.17;;;11.00;;
19087;SDS011;9676;50.916;13.352;2024-01-15T13:34:07;11.90;;;10.80;;
19087;SDS011;9676;50.916;13.352;2024-01-15T13:36:56;14.77;;;12.50;;
19087;SDS011;9676;50.916;13.352;2024-01-15T13:39:46;14.00;;;11.50;;
19087;SDS011;9676;50.916;13.352;2024-01-15T13:42:36;14.70;;;12.10;;
19087;SDS011;9676;50.916;13.352;2024-01-15T13:45:26;12.60;;;11.40;;
19087;SDS011;9676;50.916;13.352;2024-01-15T13:48:17;12.80;;;11.50;;
19087;SDS011;9676;50.916;13.352;2024-01-15T13:51:06;14.57;;;12.43;;
19087;SDS011;9676;50.916;13.352;2024-01-15T13:53:56;13.43;;;12.23;;
19087;SDS011;9676;50.916;13.352;2024-01-15T13:56:45;12.83;;;11.53;;
19087;SDS011;9676;50.916;13.352;2024-01-15T13:59:37;12.70;;;11.40;;
19087;SDS011;9676;50.916;13.352;2024-01-15T14:02:26;12.40;;;11.10;;
19087;SDS011;9676;50.916;13.352;2024-01-15T14:05:15;12.60;;;11.40;;
19087;SDS011;9676;50.916;13.352;2024-01-15T14:08:05;13.10;;;11.90;;
19087;SDS011;9676;50.916;13.352;2024-01-15T14:10:55;14.03;;;11.90;;
19087;SDS011;9676;50.916;13.352;2024-01-15T14:13:45;12.70;;;11.50;;
19087;SDS011;9676;50.916;13.352;2024-01-15T14:16:36;13.23;;;11.93;;
19087;SDS011;9676;50.916;13.352;2024-01-15T14:19:26;17.10;;;12.00;;
19087;SDS011;9676;50.916;13.352;2024-01-15T14:22:15;12.80;;;11.47;;
19087;SDS011;9676;50.916;13.352;2024-01-15T14:25:05;12.60;;;11.30;;
19087;SDS011;9676;50.916;13.352;2024-01-15T14:27:57;13.23;;;11.93;;
19087;SDS011;9676;50.916;13.352;2024-01-15T14:30:46;13.20;;;11.80;;
19087;SDS011;9676;50.916;13.352;2024-01-15T14:33:37;12.30;;;11.10;;
19087;SDS011;9676;50.916;13.352;2024-01-15T14:36:27;13.20;;;11.90;;
19087;SDS011;9676;50.916;13.352;2024-01-15T14:39:17;12.37;;;11.23;;
19087;SDS011;9676;50.916;13.352;2024-01-15T14:42:09;12.10;;;10.90;;
19087;SDS011;9676;50.916;13.352;2024-01-15T14:44:58;12.53;;;11.43;;
19087;SDS011;9676;50.916;13.352;2024-01-15T14:47:48;11.87;;;10.77;;
19087;SDS011;9676;50.916;13.352;2024-01-15T14:50:39;12.60;;;11.40;;
19087;SDS011;9676;50.916;13.352;2024-01-15T14:53:29;12.47;;;11.20;;
19087;SDS011;9676;50.916;13.352;2024-01-15T14:56:19;12.07;;;10.87;;
19087;SDS011;9676;50.916;13.352;2024-01-15T14:59:09;13.00;;;11.70;;
19087;SDS011;9676;50.916;13.352;2024-01-15T15:01:59;12.73;;;11.50;;
19087;SDS011;9676;50.916;13.352;2024-01-15T15:04:49;13.03;;;11.73;;
19087;SDS011;9676;50.916;13.352;2024-01-15T15:07:40;12.70;;;11.40;;
19087;SDS011;9676;50.916;13.352;2024-01-15T15:10:30;13.70;;;12.27;;
19087;SDS011;9676;50.916;13.352;2024-01-15T15:13:19;12.97;;;11.70;;
19087;SDS011;9676;50.916;13.352;2024-01-15T15:16:28;13.87;;;12.47;;
19087;SDS011;9676;50.916;13.352;2024-01-15T15:19:18;12.63;;;11.30;;
19087;SDS011;9676;50.916;13.352;2024-01-15T15:22:07;13.20;;;11.50;;
19087;SDS011;9676;50.916;13.352;2024-01-15T15:24:59;12.80;;;11.50;;
19087;SDS011;9676;50.916;13.352;2024-01-15T15:27:49;12.53;;;11.30;;
19087;SDS011;9676;50.916;13.352;2024-01-15T15:30:38;13.20;;;11.90;;
19087;SDS011;9676;50.916;13.352;2024-01-15T15:33:28;13.10;;;11.80;;
19087;SDS011;9676;50.916;13.352;2024-01-15T15:36:18;13.10;;;11.87;;
19087;SDS011;9676;50.916;13.352;2024-01-15T15:39:07;13.40;;;12.00;;
19087;SDS011;9676;50.916;13.352;2024-01-15T15:41:58;12.90;;;11.60;;
19087;SDS011;9676;50.916;13.352;2024-01-15T15:44:48;13.63;;;12.17;;
19087;SDS011;9676;50.916;13.352;2024-01-15T15:47:40;13.17;;;11.97;;
19087;SDS011;9676;50.916;13.352;2024-01-15T15:50:30;12.53;;;11.33;;
19087;SDS011;9676;50.916;13.352;2024-01-15T15:53:21;13.30;;;12.00;;
19087;SDS011;9676;50.916;13.352;2024-01-15T15:56:12;13.60;;;12.20;;
19087;SDS011;9676;50.916;13.352;2024-01-15T15:59:02;13.30;;;12.00;;
19087;SDS011;9676;50.916;13.352;2024-01-15T16:01:52;12.77;;;11.50;;
19087;SDS011;9676;50.916;13.352;2024-01-15T16:04:41;13.50;;;12.13;;
19087;SDS011;9676;50.916;13.352;2024-01-15T16:07:31;13.13;;;11.73;;
19087;SDS011;9676;50.916;13.352;2024-01-15T16:10:21;12.90;;;11.60;;
19087;SDS011;9676;50.916;13.352;2024-01-15T16:13:10;13.30;;;12.00;;
19087;SDS011;9676;50.916;13.352;2024-01-15T16:16:02;15.50;;;13.20;;
19087;SDS011;9676;50.916;13.352;2024-01-15T16:19:12;13.43;;;12.07;;
19087;SDS011;9676;50.916;13.352;2024-01-15T16:22:21;13.97;;;12.33;;
19087;SDS011;9676;50.916;13.352;2024-01-15T16:25:32;13.20;;;11.80;;
19087;SDS011;9676;50.916;13.352;2024-01-15T16:28:25;13.93;;;11.87;;
19087;SDS011;9676;50.916;13.352;2024-01-15T16:31:16;13.73;;;12.10;;
19087;SDS011;9676;50.916;13.352;2024-01-15T16:34:06;12.93;;;11.70;;
19087;SDS011;9676;50.916;13.352;2024-01-15T16:36:58;13.40;;;12.10;;
19087;SDS011;9676;50.916;13.352;2024-01-15T16:39:47;13.20;;;11.90;;
19087;SDS011;9676;50.916;13.352;2024-01-15T16:42:36;12.17;;;11.00;;
19087;SDS011;9676;50.916;13.352;2024-01-15T16:45:26;12.70;;;11.40;;
19087;SDS011;9676;50.916;13.352;2024-01-15T16:48:16;12.87;;;11.60;;